createdAt,value
2022-10-13T00:01:10.856Z,97062.63
2022-10-13T00:03:42.301Z,97062.97
2022-10-13T00:06:11.008Z,97069.16
2022-10-13T00:08:38.928Z,97067.03
2022-10-13T00:11:22.001Z,97068.38
2022-10-13T00:13:50.040Z,97074.41
2022-10-13T00:16:20.654Z,97075.72
2022-10-13T00:18:48.469Z,97076.19
2022-10-13T00:21:21.333Z,97067.47
2022-10-13T00:23:50.024Z,97069.94
2022-10-13T00:26:17.735Z,97068.75
2022-10-13T00:28:47.358Z,97061.91
2022-10-13T00:31:23.277Z,97075.78
2022-10-13T00:33:50.349Z,97076.97
2022-10-13T00:36:17.183Z,97074.66
2022-10-13T00:38:43.999Z,97070.69
2022-10-13T00:41:11.106Z,97067.06
2022-10-13T00:44:01.076Z,97063.75
2022-10-13T00:46:31.499Z,97063.44
2022-10-13T00:49:08.399Z,97064.06
2022-10-13T00:51:41.469Z,97058.50
2022-10-13T00:54:11.827Z,97065.88
2022-10-13T00:56:39.999Z,97065.84
2022-10-13T00:59:23.044Z,97069.13
2022-10-13T01:01:51.801Z,97069.25
2022-10-13T01:04:22.989Z,97070.06
2022-10-13T01:06:50.204Z,97060.38
2022-10-13T01:09:16.992Z,97055.72
2022-10-13T01:12:04.758Z,97061.22
2022-10-13T01:14:52.842Z,97070.38
2022-10-13T01:18:09.207Z,97070.00
2022-10-13T01:20:48.384Z,97065.69
2022-10-13T01:23:54.956Z,97071.09
2022-10-13T01:26:49.527Z,97067.66
2022-10-13T01:29:47.360Z,97065.06
2022-10-13T01:32:38.605Z,97062.50
2022-10-13T01:35:50.155Z,97052.69
2022-10-13T01:38:40.118Z,97049.78
2022-10-13T01:41:11.847Z,97044.88
2022-10-13T01:43:47.193Z,97043.59
2022-10-13T01:46:23.030Z,97051.16
2022-10-13T01:48:54.208Z,97058.59
2022-10-13T01:51:23.876Z,97056.78
2022-10-13T01:53:51.445Z,97057.94
2022-10-13T01:56:18.771Z,97054.03
2022-10-13T01:58:46.596Z,97055.00
2022-10-13T02:01:47.204Z,97059.75
2022-10-13T02:04:31.992Z,97054.88
2022-10-13T02:07:15.176Z,97055.69
2022-10-13T02:09:57.710Z,97062.09
2022-10-13T02:12:49.849Z,97059.00
2022-10-13T02:15:22.658Z,97048.19
2022-10-13T02:17:51.841Z,97056.94
2022-10-13T02:20:20.918Z,97060.19
2022-10-13T02:22:55.808Z,97054.47
2022-10-13T02:25:23.012Z,97056.28
2022-10-13T02:27:49.962Z,97061.53
2022-10-13T02:30:23.971Z,97053.34
2022-10-13T02:32:51.179Z,97056.31
2022-10-13T02:35:18.038Z,97056.00
2022-10-13T02:37:44.947Z,97056.84
2022-10-13T02:40:12.463Z,97056.03
2022-10-13T02:42:39.368Z,97051.13
2022-10-13T02:45:07.463Z,97050.31
2022-10-13T02:47:34.333Z,97052.78
2022-10-13T02:50:01.301Z,97046.22
2022-10-13T02:52:28.256Z,97037.69
2022-10-13T02:54:55.032Z,97038.88
2022-10-13T02:57:22.511Z,97046.25
2022-10-13T02:59:49.581Z,97046.56
2022-10-13T03:02:17.757Z,97048.53
2022-10-13T03:04:45.337Z,97036.59
2022-10-13T03:07:12.217Z,97033.31
2022-10-13T03:09:39.025Z,97037.25
2022-10-13T03:12:06.173Z,97042.50
2022-10-13T03:14:32.946Z,97040.03
2022-10-13T03:17:00.902Z,97040.06
2022-10-13T03:19:27.732Z,97035.81
2022-10-13T03:21:54.886Z,97038.78
2022-10-13T03:24:21.714Z,97039.28
2022-10-13T03:26:48.502Z,97033.22
2022-10-13T03:29:16.882Z,97031.28
2022-10-13T03:31:44.305Z,97031.91
2022-10-13T03:34:12.804Z,97037.13
2022-10-13T03:36:39.838Z,97035.50
2022-10-13T03:39:06.737Z,97039.75
2022-10-13T03:41:33.809Z,97044.63
2022-10-13T03:44:00.994Z,97053.47
2022-10-13T03:46:29.886Z,97042.97
2022-10-13T03:48:56.693Z,97043.13
2022-10-13T03:51:24.684Z,97050.19
2022-10-13T03:53:52.862Z,97049.50
2022-10-13T03:56:26.116Z,97052.44
2022-10-13T03:58:58.719Z,97052.72
2022-10-13T04:01:29.366Z,97044.19
2022-10-13T04:03:57.412Z,97049.09
2022-10-13T04:06:26.416Z,97041.75
2022-10-13T04:08:53.609Z,97053.97
2022-10-13T04:11:22.013Z,97039.63
2022-10-13T04:13:48.831Z,97046.22
2022-10-13T04:16:19.483Z,97052.78
2022-10-13T04:18:54.672Z,97048.66
2022-10-13T04:21:22.349Z,97054.38
2022-10-13T04:23:49.339Z,97057.00
2022-10-13T04:26:20.329Z,97060.41
2022-10-13T04:28:49.231Z,97060.94
2022-10-13T04:31:16.517Z,97057.22
2022-10-13T04:33:45.095Z,97063.94
2022-10-13T04:36:14.301Z,97058.69
2022-10-13T04:38:42.593Z,97056.09
2022-10-13T04:41:10.889Z,97061.63
2022-10-13T04:43:38.128Z,97059.84
2022-10-13T04:46:18.872Z,97059.31
2022-10-13T04:48:47.229Z,97057.00
2022-10-13T04:51:17.779Z,97054.03
2022-10-13T04:53:44.653Z,97049.41
2022-10-13T04:56:20.553Z,97050.38
2022-10-13T04:58:47.431Z,97047.06
2022-10-13T05:01:22.540Z,97044.13
2022-10-13T05:04:00.052Z,97049.00
2022-10-13T05:06:34.428Z,97040.69
2022-10-13T05:09:01.733Z,97042.13
2022-10-13T05:11:29.600Z,97032.94
2022-10-13T05:13:57.357Z,97037.81
2022-10-13T05:16:25.347Z,97037.97
2022-10-13T05:18:54.605Z,97044.38
2022-10-13T05:21:28.243Z,97049.44
2022-10-13T05:23:56.894Z,97040.09
2022-10-13T05:26:32.052Z,97049.78
2022-10-13T05:29:00.541Z,97037.19
2022-10-13T05:31:29.895Z,97040.16
2022-10-13T05:33:57.329Z,97050.31
2022-10-13T05:36:30.852Z,97036.22
2022-10-13T05:39:01.198Z,97052.19
2022-10-13T05:41:29.245Z,97048.09
2022-10-13T05:44:03.208Z,97044.28
2022-10-13T05:46:29.987Z,97048.84
2022-10-13T05:48:56.825Z,97060.28
2022-10-13T05:51:30.585Z,97048.25
2022-10-13T05:54:12.342Z,97048.66
2022-10-13T05:56:47.860Z,97048.63
2022-10-13T05:59:18.296Z,97046.28
2022-10-13T06:01:46.181Z,97045.94
2022-10-13T06:04:22.376Z,97047.69
2022-10-13T06:06:49.876Z,97042.88
2022-10-13T06:09:17.488Z,97043.16
2022-10-13T06:11:44.327Z,97036.91
2022-10-13T06:14:11.092Z,97042.81
2022-10-13T06:16:37.939Z,97040.19
2022-10-13T06:19:06.089Z,97032.16
2022-10-13T06:21:35.470Z,97037.59
2022-10-13T06:24:02.806Z,97037.28
2022-10-13T06:26:29.638Z,97036.66
2022-10-13T06:28:59.493Z,97047.44
2022-10-13T06:31:27.190Z,97043.75
2022-10-13T06:33:54.119Z,97044.47
2022-10-13T06:36:20.945Z,97047.03
2022-10-13T06:38:47.753Z,97048.56
2022-10-13T06:41:14.821Z,97041.91
2022-10-13T06:43:42.062Z,97040.56
2022-10-13T06:46:09.839Z,97040.31
2022-10-13T06:48:36.745Z,97041.94
2022-10-13T06:51:06.584Z,97045.56
2022-10-13T06:53:33.836Z,97050.13
2022-10-13T06:56:02.271Z,97049.72
2022-10-13T06:58:29.096Z,97041.31
2022-10-13T07:00:56.168Z,97052.44
2022-10-13T07:03:24.032Z,97052.28
2022-10-13T07:05:50.893Z,97054.09
2022-10-13T07:08:17.712Z,97050.72
2022-10-13T07:10:44.475Z,97049.84
2022-10-13T07:13:11.450Z,97043.94
2022-10-13T07:15:40.085Z,97049.91
2022-10-13T07:18:07.459Z,97056.25
2022-10-13T07:20:34.707Z,97054.03
2022-10-13T07:23:01.840Z,97063.00
2022-10-13T07:25:28.745Z,97041.91
2022-10-13T07:27:55.561Z,97053.38
2022-10-13T07:30:22.739Z,97047.81
2022-10-13T07:32:49.572Z,97040.34
2022-10-13T07:35:16.513Z,97047.75
2022-10-13T07:37:43.292Z,97040.34
2022-10-13T07:40:10.896Z,97045.13
2022-10-13T07:42:37.677Z,97039.03
2022-10-13T07:45:05.171Z,97029.34
2022-10-13T07:47:31.985Z,97042.09
2022-10-13T07:49:58.768Z,97033.31
2022-10-13T07:52:25.576Z,97028.09
2022-10-13T07:54:52.374Z,97023.38
2022-10-13T07:57:19.149Z,97019.38
2022-10-13T07:59:46.129Z,97026.13
2022-10-13T08:02:13.029Z,97024.81
2022-10-13T08:04:39.872Z,97017.94
2022-10-13T08:07:07.043Z,97016.88
2022-10-13T08:09:34.181Z,97011.88
2022-10-13T08:12:02.035Z,97017.28
2022-10-13T08:14:30.403Z,97016.59
2022-10-13T08:16:57.961Z,97004.91
2022-10-13T08:19:26.579Z,97006.97
2022-10-13T08:21:58.818Z,97010.66
2022-10-13T08:24:27.461Z,97011.31
2022-10-13T08:26:55.312Z,97010.69
2022-10-13T08:29:23.386Z,97019.84
2022-10-13T08:31:52.841Z,97018.84
2022-10-13T08:34:21.457Z,97029.03
2022-10-13T08:36:48.803Z,97027.59
2022-10-13T08:39:15.770Z,97021.31
2022-10-13T08:41:44.528Z,97022.72
2022-10-13T08:45:10.818Z,97022.53
2022-10-13T08:47:43.792Z,97005.47
2022-10-13T08:50:16.048Z,97011.19
2022-10-13T08:53:07.453Z,97001.84
2022-10-13T08:55:42.126Z,97002.22
2022-10-13T08:58:31.438Z,96999.38
2022-10-13T09:01:19.782Z,96994.88
2022-10-13T09:04:18.749Z,97002.69
2022-10-13T09:07:03.456Z,96996.34
2022-10-13T09:09:30.573Z,97002.56
2022-10-13T09:11:59.422Z,96987.38
2022-10-13T09:14:34.563Z,96998.94
2022-10-13T09:17:30.400Z,96992.22
2022-10-13T09:20:03.822Z,96996.72
2022-10-13T09:22:39.510Z,97000.66
2022-10-13T09:25:18.552Z,96994.47
2022-10-13T09:27:48.034Z,96996.03
2022-10-13T09:30:38.808Z,96991.81
2022-10-13T09:33:08.928Z,96982.06
2022-10-13T09:35:37.757Z,96975.81
2022-10-13T09:38:14.740Z,96973.28
2022-10-13T09:43:28.128Z,96963.06
2022-10-13T09:45:55.561Z,96972.69
2022-10-13T09:48:27.981Z,96972.41
2022-10-13T09:50:57.293Z,96968.75
2022-10-13T09:53:35.321Z,96975.66
2022-10-13T09:56:19.579Z,96969.84
2022-10-13T09:59:01.178Z,96968.50
2022-10-13T10:01:35.405Z,96961.06
2022-10-13T10:04:07.525Z,96963.28
2022-10-13T10:06:34.886Z,96963.78
2022-10-13T10:09:22.649Z,96968.47
2022-10-13T10:11:53.376Z,96958.53
2022-10-13T10:14:39.281Z,96961.75
2022-10-13T10:17:32.568Z,96958.16
2022-10-13T10:20:44.993Z,96959.50
2022-10-13T10:23:22.966Z,96948.69
2022-10-13T10:25:59.243Z,96950.72
2022-10-13T10:28:50.566Z,96956.91
2022-10-13T10:31:42.412Z,96958.03
2022-10-13T10:34:52.874Z,96950.44
2022-10-13T10:37:33.115Z,96947.97
2022-10-13T10:40:19.006Z,96945.31
2022-10-13T10:43:06.784Z,96954.81
2022-10-13T10:45:40.580Z,96943.00
2022-10-13T10:48:18.781Z,96941.09
2022-10-13T10:50:46.649Z,96933.81
2022-10-13T10:53:57.475Z,96927.88
2022-10-13T10:56:49.078Z,96928.78
2022-10-13T10:59:49.973Z,96917.69
2022-10-13T11:02:54.899Z,96916.00
2022-10-13T11:05:22.088Z,96906.06
2022-10-13T11:07:51.449Z,96906.44
2022-10-13T11:10:21.716Z,96900.25
2022-10-13T11:12:51.254Z,96898.44
2022-10-13T11:15:28.800Z,96892.97
2022-10-13T11:17:55.661Z,96889.69
2022-10-13T11:20:22.373Z,96883.69
2022-10-13T11:23:00.695Z,96883.16
2022-10-13T11:25:48.806Z,96884.69
2022-10-13T11:28:21.927Z,96880.09
2022-10-13T11:31:05.498Z,96872.91
2022-10-13T11:33:38.993Z,96867.25
2022-10-13T11:36:55.583Z,96862.91
2022-10-13T11:39:51.889Z,96863.47
2022-10-13T11:42:59.253Z,96865.94
2022-10-13T11:45:49.045Z,96863.06
2022-10-13T11:48:30.375Z,96860.06
2022-10-13T11:51:30.356Z,96856.81
2022-10-13T11:54:05.916Z,96856.63
2022-10-13T11:56:53.265Z,96855.50
2022-10-13T11:59:35.137Z,96841.16
2022-10-13T12:02:10.811Z,96846.31
2022-10-13T12:04:46.285Z,96833.00
2022-10-13T12:07:16.026Z,96822.44
2022-10-13T12:09:54.164Z,96814.56
2022-10-13T12:12:23.085Z,96809.03
2022-10-13T12:14:58.720Z,96810.13
2022-10-13T12:17:33.253Z,96806.38
2022-10-13T12:20:21.959Z,96812.22
2022-10-13T12:22:50.397Z,96803.09
2022-10-13T12:25:20.522Z,96803.56
2022-10-13T12:27:51.021Z,96797.81
2022-10-13T12:30:24.644Z,96795.84
2022-10-13T12:32:57.513Z,96799.44
2022-10-13T12:35:33.627Z,96803.78
2022-10-13T12:38:23.441Z,96806.22
2022-10-13T12:40:53.447Z,96806.59
2022-10-13T12:43:27.520Z,96807.19
2022-10-13T12:45:54.579Z,96799.56
2022-10-13T12:48:36.897Z,96796.19
2022-10-13T12:51:34.738Z,96792.91
2022-10-13T12:54:20.483Z,96796.56
2022-10-13T12:56:48.732Z,96799.31
2022-10-13T12:59:19.572Z,96781.63
2022-10-13T13:01:57.540Z,96780.22
2022-10-13T13:04:24.213Z,96779.13
2022-10-13T13:07:02.043Z,96780.78
2022-10-13T13:09:38.733Z,96781.19
2022-10-13T13:12:11.108Z,96782.75
2022-10-13T13:14:43.538Z,96772.97
2022-10-13T13:20:26.726Z,96773.44
2022-10-13T13:22:54.690Z,96768.34
2022-10-13T13:25:21.920Z,96777.47
2022-10-13T13:27:49.126Z,96777.84
2022-10-13T13:30:19.788Z,96767.72
2022-10-13T13:32:46.915Z,96766.03
2022-10-13T13:35:13.881Z,96759.59
2022-10-13T13:37:45.376Z,96754.66
2022-10-13T13:40:19.412Z,96752.53
2022-10-13T13:42:46.393Z,96756.44
2022-10-13T13:45:19.712Z,96758.53
2022-10-13T13:47:47.334Z,96750.28
2022-10-13T13:50:20.803Z,96754.88
2022-10-13T13:52:48.066Z,96746.75
2022-10-13T13:55:15.271Z,96741.91
2022-10-13T13:57:43.456Z,96748.44
2022-10-13T14:00:15.721Z,96743.25
2022-10-13T14:02:44.201Z,96748.34
2022-10-13T14:05:12.297Z,96739.84
2022-10-13T14:07:40.267Z,96746.19
2022-10-13T14:10:09.379Z,96738.22
2022-10-13T14:12:36.344Z,96745.91
2022-10-13T14:15:03.605Z,96741.69
2022-10-13T14:17:30.403Z,96744.34
2022-10-13T14:19:57.194Z,96745.56
2022-10-13T14:22:24.246Z,96748.25
2022-10-13T14:24:51.334Z,96738.53
2022-10-13T14:27:18.120Z,96736.84
2022-10-13T14:29:45.010Z,96740.25
2022-10-13T14:32:12.091Z,96741.16
2022-10-13T14:34:38.868Z,96742.59
2022-10-13T14:37:05.679Z,96735.63
2022-10-13T14:39:32.504Z,96739.38
2022-10-13T14:41:59.286Z,96730.13
2022-10-13T14:44:26.047Z,96734.91
2022-10-13T14:46:52.857Z,96728.22
2022-10-13T14:49:19.869Z,96731.59
2022-10-13T14:51:46.704Z,96731.88
2022-10-13T14:54:13.480Z,96724.00
2022-10-13T14:56:40.361Z,96726.97
2022-10-13T14:59:07.757Z,96733.19
2022-10-13T15:01:34.811Z,96727.72
2022-10-13T15:04:02.837Z,96738.72
2022-10-13T15:06:29.818Z,96729.53
2022-10-13T15:08:57.277Z,96732.97
2022-10-13T15:11:25.600Z,96727.88
2022-10-13T15:13:52.758Z,96724.31
2022-10-13T15:16:28.665Z,96728.66
2022-10-13T15:18:56.574Z,96721.13
2022-10-13T15:21:24.240Z,96722.81
2022-10-13T15:23:51.465Z,96725.63
2022-10-13T15:26:19.819Z,96726.94
2022-10-13T15:28:50.895Z,96723.78
2022-10-13T15:31:19.996Z,96722.75
2022-10-13T15:33:52.390Z,96721.56
2022-10-13T15:36:21.064Z,96717.63
2022-10-13T15:38:48.348Z,96719.72
2022-10-13T15:41:16.110Z,96719.25
2022-10-13T15:43:43.033Z,96729.38
2022-10-13T15:46:21.591Z,96734.19
2022-10-13T15:48:53.343Z,96730.78
2022-10-13T15:51:23.970Z,96735.31
2022-10-13T15:53:50.822Z,96731.59
2022-10-13T15:56:17.637Z,96731.97
2022-10-13T15:58:45.441Z,96732.91
2022-10-13T16:01:13.705Z,96731.97
2022-10-13T16:03:40.932Z,96730.16
2022-10-13T16:06:10.515Z,96727.72
2022-10-13T16:08:43.902Z,96727.13
2022-10-13T16:11:13.526Z,96723.53
2022-10-13T16:13:41.729Z,96711.28
2022-10-13T16:16:08.692Z,96718.63
2022-10-13T16:18:37.689Z,96711.94
2022-10-13T16:21:18.755Z,96712.47
2022-10-13T16:23:47.426Z,96710.00
2022-10-13T16:26:17.587Z,96711.94
2022-10-13T16:28:45.702Z,96711.41
2022-10-13T16:31:16.057Z,96725.00
2022-10-13T16:33:45.507Z,96719.63
2022-10-13T16:36:18.527Z,96716.25
2022-10-13T16:38:47.207Z,96721.25
2022-10-13T16:41:17.125Z,96724.44
2022-10-13T16:43:45.495Z,96726.63
2022-10-13T16:46:15.364Z,96724.78
2022-10-13T16:48:43.404Z,96723.53
2022-10-13T16:51:23.841Z,96732.66
2022-10-13T16:54:02.809Z,96733.41
2022-10-13T16:56:31.067Z,96732.50
2022-10-13T16:59:01.536Z,96736.19
2022-10-13T17:01:30.005Z,96729.25
2022-10-13T17:03:57.375Z,96729.25
2022-10-13T17:06:27.113Z,96725.31
2022-10-13T17:08:54.308Z,96729.88
2022-10-13T17:11:25.326Z,96724.19
2022-10-13T17:13:52.492Z,96728.91
2022-10-13T17:16:20.187Z,96731.94
2022-10-13T17:18:46.972Z,96736.81
2022-10-13T17:21:16.694Z,96725.31
2022-10-13T17:23:48.347Z,96735.31
2022-10-13T17:26:18.230Z,96737.44
2022-10-13T17:28:45.685Z,96745.31
2022-10-13T17:31:17.857Z,96742.53
2022-10-13T17:33:46.004Z,96744.00
2022-10-13T17:36:19.417Z,96738.31
2022-10-13T17:38:48.158Z,96744.28
2022-10-13T17:41:15.507Z,96747.34
2022-10-13T17:43:42.791Z,96731.28
2022-10-13T17:46:34.423Z,96743.53
2022-10-13T17:48:58.319Z,96740.72
2022-10-13T17:51:25.347Z,96732.63
2022-10-13T17:53:52.820Z,96733.03
2022-10-13T17:56:25.019Z,96740.38
2022-10-13T17:58:52.598Z,96739.22
2022-10-13T18:01:29.626Z,96737.38
2022-10-13T18:04:02.679Z,96742.47
2022-10-13T18:06:45.741Z,96747.00
2022-10-13T18:09:19.394Z,96738.09
2022-10-13T18:11:50.766Z,96732.03
2022-10-13T18:14:24.088Z,96731.31
2022-10-13T18:16:51.715Z,96735.03
2022-10-13T18:19:18.585Z,96733.84
2022-10-13T18:21:45.417Z,96727.78
2022-10-13T18:24:12.435Z,96734.69
2022-10-13T18:26:39.400Z,96729.00
2022-10-13T18:29:08.373Z,96725.38
2022-10-13T18:31:38.462Z,96727.00
2022-10-13T18:34:10.516Z,96719.72
2022-10-13T18:36:43.445Z,96721.56
2022-10-13T18:39:19.188Z,96718.75
2022-10-13T18:41:46.965Z,96719.75
2022-10-13T18:44:14.502Z,96717.72
2022-10-13T18:46:41.726Z,96713.69
2022-10-13T18:49:14.722Z,96711.72
2022-10-13T18:51:42.094Z,96725.56
2022-10-13T18:54:09.261Z,96717.44
2022-10-13T18:56:36.930Z,96721.34
2022-10-13T18:59:06.371Z,96718.34
2022-10-13T19:01:35.340Z,96714.72
2022-10-13T19:04:02.302Z,96718.38
2022-10-13T19:06:31.943Z,96710.66
2022-10-13T19:09:02.299Z,96704.59
2022-10-13T19:11:30.279Z,96706.88
2022-10-13T19:13:59.604Z,96698.56
2022-10-13T19:16:30.103Z,96707.50
2022-10-13T19:18:57.296Z,96704.69
2022-10-13T19:21:25.117Z,96703.88
2022-10-13T19:23:52.360Z,96706.72
2022-10-13T19:26:28.266Z,96712.81
2022-10-13T19:28:57.951Z,96703.88
2022-10-13T19:31:28.217Z,96705.44
2022-10-13T19:33:55.861Z,96707.50
2022-10-13T19:36:34.924Z,96703.81
2022-10-13T19:39:05.542Z,96711.13
2022-10-13T19:41:33.023Z,96696.28
2022-10-13T19:44:00.700Z,96696.28
2022-10-13T19:46:27.604Z,96697.69
2022-10-13T19:48:54.661Z,96697.69
2022-10-13T19:51:21.443Z,96688.34
2022-10-13T19:53:48.977Z,96686.72
2022-10-13T19:56:31.860Z,96688.53
2022-10-13T19:58:59.714Z,96692.44
2022-10-13T20:01:27.029Z,96700.94
2022-10-13T20:03:54.586Z,96705.81
2022-10-13T20:06:22.692Z,96699.72
2022-10-13T20:08:49.732Z,96693.63
2022-10-13T20:11:23.696Z,96695.63
2022-10-13T20:13:52.920Z,96689.78
2022-10-13T20:16:23.281Z,96691.78
2022-10-13T20:18:54.032Z,96706.63
2022-10-13T20:21:22.576Z,96698.69
2022-10-13T20:23:49.678Z,96696.25
2022-10-13T20:26:17.373Z,96695.44
2022-10-13T20:28:46.507Z,96698.06
2022-10-13T20:31:15.511Z,96697.72
2022-10-13T20:33:43.423Z,96700.56
2022-10-13T20:36:16.742Z,96704.22
2022-10-13T20:38:43.550Z,96698.75
2022-10-13T20:41:19.679Z,96708.91
2022-10-13T20:43:48.382Z,96711.16
2022-10-13T20:46:17.211Z,96704.25
2022-10-13T20:49:09.473Z,96706.50
2022-10-13T20:51:31.597Z,96707.53
2022-10-13T20:53:58.440Z,96705.09
2022-10-13T20:56:26.478Z,96704.69
2022-10-13T20:58:54.207Z,96697.78
2022-10-13T21:01:22.941Z,96700.81
2022-10-13T21:03:54.309Z,96692.91
2022-10-13T21:06:23.442Z,96705.09
2022-10-13T21:08:50.636Z,96702.66
2022-10-13T21:11:20.259Z,96698.81
2022-10-13T21:13:48.091Z,96702.44
2022-10-13T21:16:19.405Z,96701.06
2022-10-13T21:18:51.013Z,96701.84
2022-10-13T21:21:22.080Z,96703.28
2022-10-13T21:23:58.168Z,96702.25
2022-10-13T21:26:27.962Z,96706.09
2022-10-13T21:28:55.143Z,96714.00
2022-10-13T21:31:23.734Z,96707.91
2022-10-13T21:33:50.947Z,96719.28
2022-10-13T21:36:30.007Z,96705.06
2022-10-13T21:39:05.066Z,96712.00
2022-10-13T21:41:32.105Z,96713.19
2022-10-13T21:43:59.213Z,96707.53
2022-10-13T21:46:30.098Z,96715.63
2022-10-13T21:49:00.239Z,96713.19
2022-10-13T21:51:29.981Z,96703.84
2022-10-13T21:54:01.993Z,96711.34
2022-10-13T21:56:30.268Z,96697.13
2022-10-13T21:58:57.142Z,96709.13
2022-10-13T22:01:24.810Z,96714.81
2022-10-13T22:03:57.869Z,96717.63
2022-10-13T22:06:25.527Z,96721.69
2022-10-13T22:08:55.617Z,96723.31
2022-10-13T22:11:26.363Z,96715.56
2022-10-13T22:13:53.496Z,96722.03
2022-10-13T22:16:24.429Z,96730.59
2022-10-13T22:18:56.425Z,96724.69
2022-10-13T22:21:30.216Z,96720.41
2022-10-13T22:24:00.435Z,96714.72
2022-10-13T22:26:30.451Z,96713.53
2022-10-13T22:28:59.636Z,96711.09
2022-10-13T22:31:26.984Z,96705.81
2022-10-13T22:33:54.907Z,96704.19
2022-10-13T22:36:24.284Z,96710.50
2022-10-13T22:38:55.008Z,96714.41
2022-10-13T22:41:21.915Z,96722.56
2022-10-13T22:43:54.795Z,96729.47
2022-10-13T22:46:28.208Z,96727.44
2022-10-13T22:48:56.654Z,96729.06
2022-10-13T22:51:25.638Z,96727.22
2022-10-13T22:53:52.501Z,96722.97
2022-10-13T22:56:23.494Z,96716.28
2022-10-13T22:58:52.742Z,96725.41
2022-10-13T23:01:21.173Z,96724.97
2022-10-13T23:03:50.456Z,96727.00
2022-10-13T23:06:21.102Z,96732.25
2022-10-13T23:08:48.594Z,96724.13
2022-10-13T23:11:16.997Z,96719.19
2022-10-13T23:13:44.016Z,96713.47
2022-10-13T23:16:16.191Z,96717.47
2022-10-13T23:18:43.444Z,96710.34
2022-10-13T23:21:14.467Z,96708.09
2022-10-13T23:23:41.349Z,96702.34
2022-10-13T23:26:15.250Z,96698.66
2022-10-13T23:28:42.722Z,96708.41
2022-10-13T23:31:15.448Z,96714.59
2022-10-13T23:33:42.701Z,96709.66
2022-10-13T23:36:16.410Z,96712.97
2022-10-13T23:38:43.207Z,96715.09
2022-10-13T23:41:13.702Z,96720.75
2022-10-13T23:43:41.233Z,96713.38
2022-10-13T23:46:10.512Z,96715.41
2022-10-13T23:48:38.339Z,96715.63
2022-10-13T23:51:15.533Z,96713.34
2022-10-13T23:53:42.982Z,96714.69
2022-10-13T23:56:11.268Z,96713.38
2022-10-13T23:58:40.807Z,96711.78
